Thursday, October 23, 2014, 9:03 AM EDT

KOXB, Ocean City Municipal Airport

Location: Berlin, MD, United States Lat: 38.317
Local Time: 9:03 AM EDT (13:03 GMT) Lon: -75.117
Time Zone: US/Eastern Elev: 13 ft

Show me the last for .
Show Decoded

2014-10-23 06:53 METAR KOXB 231053Z AUTO 33009KT 10SM OVC025 11/08 A2977 RMK AO2 RAB11E37 SLP079
                 P0000 T01110078 TSNO =
2014-10-23 05:53 METAR KOXB 230953Z AUTO 32009G17KT 10SM OVC025 11/08 A2976 RMK AO2 RAB28E40
                 SLP076 P0000 T01060083 TSNO =
2014-10-23 04:53 METAR KOXB 230853Z AUTO 31009G16KT 10SM SCT013 OVC028 10/09 A2974 RMK AO2 RAE42
                 SLP072 P0000 60000 T01000089 56007 TSNO =
2014-10-23 04:45 METAR KOXB 230845Z AUTO 32010G18KT 10SM BKN013 OVC030 10/09 A2974 RMK AO2 RAE42
                 P0000 T01000089 TSNO =
2014-10-23 04:27 METAR KOXB 230827Z AUTO 31012G20KT 8SM -RA SCT010 BKN015 OVC030 10/09 A2974 RMK
                 AO2 P0000 T01000089 TSNO =
2014-10-23 04:01 METAR KOXB 230801Z AUTO 32011G16KT 6SM -RA BR BKN014 OVC020 10/09 A2975 RMK AO2
                 P0000 T01000089 TSNO =
2014-10-23 03:53 METAR KOXB 230753Z AUTO 32012G18KT 6SM -RA BR SCT014 OVC019 10/08 A2975 RMK AO2
                 RAB15 SLP073 P0000 T01000083 TSNO =
2014-10-23 02:53 METAR KOXB 230653Z AUTO 32012G18KT 10SM BKN018 BKN027 OVC031 11/08 A2975 RMK AO2
                 RAE22 SLP074 P0000 T01060083 TSNO =
2014-10-23 01:53 METAR KOXB 230553Z AUTO 32011G18KT 5SM -RA BR FEW016 BKN023 OVC029 11/08 A2977
                 RMK AO2 RAB35 SLP079 P0000 60000 T01060083 10122 20106 56007 TSNO =
2014-10-23 00:53 METAR KOXB 230453Z AUTO 32011G21KT 10SM BKN023 OVC031 12/08 A2977 RMK AO2 SLP081
                 T01170083 401560111 TSNO =
2014-10-22 23:53 METAR KOXB 230353Z AUTO 33013G23KT 10SM SCT020 BKN024 OVC036 12/09 A2978 RMK AO2
                 SLP084 T01170089 TSNO =
2014-10-22 22:53 METAR KOXB 230253Z AUTO 33014G21KT 10SM BKN015 OVC023 12/10 A2979 RMK AO2 SLP086
                 60000 T01170100 50001 TSNO =
2014-10-22 22:45 METAR KOXB 230245Z AUTO 33013G22KT 9SM BKN015 OVC023 11/10 A2979 RMK AO2
                 T01110100 TSNO =
2014-10-22 21:53 METAR KOXB 230153Z AUTO 33010G22KT 9SM BKN012 OVC018 12/10 A2979 RMK AO2 RAE53
                 SLP088 P0000 T01170100 TSNO =
2014-10-22 21:21 METAR KOXB 230121Z AUTO 34013G21KT 5SM -RA BR BKN010 BKN015 OVC020 12/11 A2979
                 RMK AO2 P0000 T01170106 TSNO =
2014-10-22 21:10 METAR KOXB 230110Z AUTO 34016G23KT 4SM -RA BR FEW006 BKN009 OVC017 12/11 A2979
                 RMK AO2 P0000 T01170106 TSNO =
2014-10-22 20:53 METAR KOXB 230053Z AUTO 34012G21KT 4SM -RA BR BKN010 OVC014 12/11 A2979 RMK AO2
                 CIG 006V011 SLP087 P0000 T01170106 TSNO =
2014-10-22 20:21 METAR KOXB 230021Z AUTO 34016G21KT 4SM -RA BR BKN012 BKN017 OVC023 12/11 A2979
                 RMK AO2 P0000 T01220106 TSNO =
2014-10-22 20:11 METAR KOXB 230011Z AUTO 34012G19KT 7SM -RA FEW010 BKN015 OVC023 12/11 A2978 RMK
                 AO2 P0000 T01220106 TSNO =
2014-10-22 19:53 METAR KOXB 222353Z AUTO 35012G22KT 9SM -RA BKN014 OVC019 12/11 A2978 RMK AO2
                 RAB03 SLP085 P0000 60033 T01220106 10144 20122 53006 TSNO =
2014-10-22 19:35 METAR KOXB 222335Z AUTO 34015G21KT 10SM -RA OVC013 12/11 A2978 RMK AO2 RAB03
                 P0000 T01220111 TSNO =
2014-10-22 18:53 METAR KOXB 222253Z AUTO 35010G25KT 10SM OVC017 13/11 A2978 RMK AO2 PK WND
                 35028/2229 SLP084 T01280106 TSNO =
2014-10-22 18:06 METAR KOXB 222206Z AUTO 35015G22KT 10SM OVC015 13/11 A2977 RMK AO2 T01280111
                 TSNO =
2014-10-22 17:53 METAR KOXB 222153Z AUTO 34016G24KT 10SM OVC014 13/11 A2977 RMK AO2 RAE39 SLP079
                 P0000 T01280111 TSNO =
2014-10-22 17:48 METAR KOXB 222148Z AUTO 34015G24KT 10SM BKN016 OVC021 13/11 A2976 RMK AO2 RAE39
                 P0000 TSNO =
2014-10-22 17:25 METAR KOXB 222125Z AUTO 34012G24KT 5SM -RA BR BKN014 BKN019 OVC026 13/11 A2976
                 RMK AO2 P0000 T01280111 TSNO =
2014-10-22 16:53 METAR KOXB 222053Z AUTO 35016G23KT 10SM -RA OVC019 14/11 A2975 RMK AO2 PK WND
                 36027/2024 RAB49 SLP072 P0000 60033 T01390111 53001 TSNO =
2014-10-22 15:30 METAR KOXB 221930Z AUTO 34014G19KT 10SM SCT023 BKN028 OVC070 14/12 A2974 RMK AO2
                 RAE07 P0000 T01440122 TSNO =
2014-10-22 15:20 METAR KOXB 221920Z AUTO 35011KT 10SM SCT026 BKN034 OVC070 14/13 A2974 RMK AO2
                 RAE07 P0000 T01440128 TSNO =
2014-10-22 14:53 METAR KOXB 221853Z AUTO 35011G17KT 4SM RA BR FEW014 BKN022 OVC028 14/13 A2974
                 RMK AO2 PK WND 35032/1816 SLP071 P0033 T01390128 TSNO =
2014-10-22 14:28 METAR KOXB 221828Z AUTO 34011G18KT 3SM -RA BR SCT017 BKN023 OVC033 14/13 A2974
                 RMK AO2 PK WND 35032/1816 P0032 T01390128 TSNO =
2014-10-22 14:26 METAR KOXB 221826Z AUTO 34013G18KT 1 1/4SM RA BR FEW016 BKN031 OVC040 14/13
                 A2974 RMK AO2 PK WND 35032/1816 P0032 T01390128 TSNO =
2014-10-22 14:20 METAR KOXB 221820Z AUTO 33014G32KT 3/4SM +RA BR SCT015 BKN024 OVC035 14/12 A2974
                 RMK AO2 PK WND 35032/1816 P0032 T01390122 TSNO =
2014-10-22 14:11 METAR KOXB 221811Z AUTO 35012G20KT 3SM -RA BR FEW014 BKN021 OVC026 14/13 A2974
                 RMK AO2 P0014 T01440128 TSNO =
2014-10-22 14:06 METAR KOXB 221806Z AUTO 35010G20KT 1SM +RA BR SCT013 BKN019 OVC026 14/13 A2974
                 RMK AO2 P0014 T01440128 TSNO =
2014-10-22 13:53 METAR KOXB 221753Z AUTO 34010G19KT 1/2SM RA FG SCT016 BKN021 OVC027 14/13 A2974
                 RMK AO2 PK WND 36028/1742 VIS 1/4V3 SLP072 P0071 60073 T01390128 10156 20128
                 55015 TSNO =
2014-10-22 13:51 METAR KOXB 221751Z AUTO 34010G28KT 1/2SM +RA FG BKN018 BKN025 OVC041 14/13 A2974
                 RMK AO2 PK WND 36028/1742 P0071 TSNO =
2014-10-22 13:42 METAR KOXB 221742Z AUTO 35019G28KT 1 3/4SM RA BR FEW016 BKN026 OVC041 14/13
                 A2975 RMK AO2 PK WND 36028/1742 P0051 T01440128 TSNO =
2014-10-22 13:39 METAR KOXB 221739Z AUTO 35012G18KT 3SM RA BR SCT016 BKN026 OVC041 14/13 A2974
                 RMK AO2 P0042 T01390128 TSNO =
2014-10-22 13:33 METAR KOXB 221733Z AUTO 32012G18KT 1SM +RA BR BKN016 BKN022 OVC034 14/12 A2974
                 RMK AO2 P0042 T01390122 TSNO =
2014-10-22 13:24 METAR KOXB 221724Z AUTO 3/4SM +RA BR BKN014 BKN025 13/11 A2975 RMK AO2 P0029
                 T01330111 TSNO =
2014-10-22 13:22 METAR KOXB 221722Z AUTO 1 1/4SM RA BR BKN016 BKN025 14/12 A2977 RMK AO2 P0019
                 T01440122 TSNO =
2014-10-22 12:53 METAR KOXB 221653Z AUTO 35008G16KT 5SM -RA BR BKN016 BKN022 OVC041 15/13 A2976
                 RMK AO2 RAB40 SLP077 P0002 T01500128 TSNO =
2014-10-22 12:36 METAR KOXB 221636Z AUTO 35010KT 10SM FEW019 SCT027 BKN032 16/12 A2977 RMK AO2
                 T01560122 TSNO =
2014-10-22 11:53 METAR KOXB 221553Z AUTO 01010G18KT 10SM OVC017 14/12 A2979 RMK AO2 SLP087
                 T01440117 TSNO =
2014-10-22 11:21 METAR KOXB 221521Z AUTO 02014G21KT 10SM BKN017 BKN070 OVC100 14/12 A2979 RMK AO2
                 T01440117 TSNO =
2014-10-22 11:02 METAR KOXB 221502Z AUTO 01014G23KT 10SM SCT016 BKN075 OVC095 14/12 A2978 RMK AO2
                 T01440117 TSNO =
2014-10-22 10:53 METAR KOXB 221453Z AUTO 01014KT 10SM BKN016 BKN055 OVC075 14/12 A2978 RMK AO2
                 RAB43E53 SLP085 P0000 60000 T01440117 58004 TSNO =
2014-10-22 10:25 METAR KOXB 221425Z AUTO 01012G18KT 10SM BKN015 BKN029 OVC048 16/13 A2978 RMK AO2
                 T01560128 TSNO =
2014-10-22 09:53 METAR KOXB 221353Z AUTO 36013KT 10SM BKN013 BKN039 16/13 A2978 RMK AO2 SLP083
                 T01560133 TSNO =

Support USWX by starting your Amazon purchase here.